createdAt,value
2019-05-09T00:00:43.776Z,8.02
2019-05-09T00:03:14.086Z,8.00
2019-05-09T00:05:45.795Z,7.97
2019-05-09T00:08:16.875Z,7.95
2019-05-09T00:10:50.215Z,7.96
2019-05-09T00:13:20.986Z,7.97
2019-05-09T00:15:54.003Z,7.97
2019-05-09T00:18:24.119Z,7.96
2019-05-09T00:21:00.616Z,7.94
2019-05-09T00:23:33.209Z,7.92
2019-05-09T00:26:04.311Z,7.93
2019-05-09T00:28:37.896Z,7.93
2019-05-09T00:31:37.606Z,7.93
2019-05-09T00:34:10.583Z,7.90
2019-05-09T00:36:43.250Z,7.84
2019-05-09T00:39:14.056Z,7.82
2019-05-09T00:41:44.975Z,7.79
2019-05-09T00:44:23.776Z,7.76
2019-05-09T00:47:00.735Z,7.73
2019-05-09T00:49:31.486Z,7.76
2019-05-09T00:52:03.492Z,7.76
2019-05-09T00:54:34.760Z,7.73
2019-05-09T00:57:05.576Z,7.69
2019-05-09T00:59:36.576Z,7.66
2019-05-09T01:02:07.426Z,7.65
2019-05-09T01:04:38.415Z,7.63
2019-05-09T01:07:09.196Z,7.64
2019-05-09T01:09:40.075Z,7.66
2019-05-09T01:12:14.349Z,7.63
2019-05-09T01:14:45.476Z,7.60
2019-05-09T01:17:16.336Z,7.57
2019-05-09T01:19:47.496Z,7.54
2019-05-09T01:22:18.295Z,7.50
2019-05-09T01:24:49.135Z,7.47
2019-05-09T01:27:20.096Z,7.48
2019-05-09T01:29:53.436Z,7.50
2019-05-09T01:32:53.832Z,7.49
2019-05-09T01:35:23.875Z,7.48
2019-05-09T01:37:54.696Z,7.44
2019-05-09T01:40:25.436Z,7.43
2019-05-09T01:42:56.176Z,7.40
2019-05-09T01:45:26.936Z,7.37
2019-05-09T01:47:57.881Z,7.35
2019-05-09T01:50:29.677Z,7.31
2019-05-09T01:53:00.440Z,7.29
2019-05-09T01:55:48.576Z,7.30
2019-05-09T01:58:19.676Z,7.30
2019-05-09T02:00:50.435Z,7.29
2019-05-09T02:03:23.353Z,7.27
2019-05-09T02:05:54.080Z,7.26
2019-05-09T02:08:24.876Z,7.23
2019-05-09T02:10:55.776Z,7.22
2019-05-09T02:13:26.735Z,7.23
2019-05-09T02:16:15.012Z,7.25
2019-05-09T02:18:53.344Z,7.21
2019-05-09T02:21:24.104Z,7.21
2019-05-09T02:23:56.015Z,7.19
2019-05-09T02:26:26.966Z,7.18
2019-05-09T02:28:57.775Z,7.20
2019-05-09T02:31:28.839Z,7.22
2019-05-09T02:33:59.636Z,7.21
2019-05-09T02:36:30.796Z,7.21
2019-05-09T02:39:01.600Z,7.22
2019-05-09T02:41:32.877Z,7.20
2019-05-09T02:44:03.717Z,7.20
2019-05-09T02:46:51.048Z,7.17
2019-05-09T02:49:21.816Z,7.17
2019-05-09T02:51:52.756Z,7.17
2019-05-09T02:54:23.556Z,7.17
2019-05-09T02:56:54.456Z,7.19
2019-05-09T02:59:44.001Z,7.22
2019-05-09T03:02:29.023Z,7.23
2019-05-09T03:04:59.936Z,7.18
2019-05-09T03:07:49.978Z,7.17
2019-05-09T03:10:21.685Z,7.16
2019-05-09T03:12:52.639Z,7.20
2019-05-09T03:15:23.516Z,7.24
2019-05-09T03:17:54.519Z,7.27
2019-05-09T03:20:50.050Z,7.31
2019-05-09T03:23:20.967Z,7.33
2019-05-09T03:25:51.996Z,7.34
2019-05-09T03:28:38.681Z,7.40
2019-05-09T03:31:09.786Z,7.43
2019-05-09T03:33:41.163Z,7.50
2019-05-09T03:36:12.101Z,7.55
2019-05-09T03:38:43.036Z,7.61
2019-05-09T03:41:14.357Z,7.64
2019-05-09T03:43:45.256Z,7.66
2019-05-09T03:46:22.646Z,7.70
2019-05-09T03:48:55.556Z,7.75
2019-05-09T03:51:27.473Z,7.83
2019-05-09T03:53:58.596Z,7.90
2019-05-09T03:56:33.935Z,7.97
2019-05-09T03:59:04.915Z,8.05
2019-05-09T04:01:38.033Z,8.13
2019-05-09T04:04:08.883Z,8.23
2019-05-09T04:06:39.958Z,8.31
2019-05-09T04:09:10.866Z,8.35
2019-05-09T04:11:41.746Z,8.43
2019-05-09T04:14:17.541Z,8.55
2019-05-09T04:16:49.221Z,8.61
2019-05-09T04:19:20.076Z,8.67
2019-05-09T04:21:51.416Z,8.74
2019-05-09T04:24:23.018Z,8.79
2019-05-09T04:27:07.896Z,8.85
2019-05-09T04:29:39.275Z,8.93
2019-05-09T04:32:10.296Z,8.98
2019-05-09T04:34:41.136Z,9.08
2019-05-09T04:37:12.376Z,9.23
2019-05-09T04:39:43.436Z,9.37
2019-05-09T04:42:14.436Z,9.52
2019-05-09T04:44:57.564Z,9.64
2019-05-09T04:47:23.456Z,9.78
2019-05-09T04:49:54.336Z,9.89
2019-05-09T04:52:25.196Z,9.97
2019-05-09T04:54:57.601Z,10.11
2019-05-09T04:57:28.456Z,10.20
2019-05-09T05:00:00.519Z,10.28
2019-05-09T05:02:43.926Z,10.39
2019-05-09T05:05:14.840Z,10.50
2019-05-09T05:07:47.918Z,10.60
2019-05-09T05:10:18.518Z,10.69
2019-05-09T05:12:49.517Z,10.81
2019-05-09T05:15:20.776Z,10.96
2019-05-09T05:17:52.686Z,11.13
2019-05-09T05:20:27.762Z,11.24
2019-05-09T05:23:04.880Z,11.36
2019-05-09T05:25:35.716Z,11.43
2019-05-09T05:28:08.576Z,11.60
2019-05-09T05:30:39.246Z,11.75
2019-05-09T05:33:27.848Z,11.94
2019-05-09T05:36:00.646Z,12.11
2019-05-09T05:38:31.366Z,12.21
2019-05-09T05:41:02.198Z,12.29
2019-05-09T05:43:43.275Z,12.42
2019-05-09T05:46:30.399Z,12.52
2019-05-09T05:49:01.296Z,12.71
2019-05-09T05:51:49.392Z,12.95
2019-05-09T05:54:21.056Z,13.07
2019-05-09T05:56:51.896Z,13.29
2019-05-09T05:59:22.727Z,13.51
2019-05-09T06:01:53.536Z,13.67
2019-05-09T06:04:24.396Z,13.81
2019-05-09T06:06:55.126Z,14.04
2019-05-09T06:09:28.043Z,14.20
2019-05-09T06:11:58.741Z,14.38
2019-05-09T06:14:29.456Z,14.61
2019-05-09T06:17:00.206Z,14.77
2019-05-09T06:19:31.485Z,14.89
2019-05-09T06:22:02.287Z,14.88
2019-05-09T06:24:33.117Z,14.76
2019-05-09T06:27:06.975Z,14.86
2019-05-09T06:29:38.583Z,14.89
2019-05-09T06:32:09.110Z,14.96
2019-05-09T06:34:47.894Z,15.01
2019-05-09T06:37:18.836Z,15.13
2019-05-09T06:39:49.578Z,15.23
2019-05-09T06:42:20.478Z,15.12
2019-05-09T06:45:12.866Z,15.22
2019-05-09T06:47:45.316Z,15.34
2019-05-09T06:50:18.520Z,15.38
2019-05-09T06:52:49.316Z,15.71
2019-05-09T06:55:20.177Z,16.04
2019-05-09T06:57:50.931Z,16.27
2019-05-09T07:00:29.537Z,16.52
2019-05-09T07:03:08.269Z,16.84
2019-05-09T07:06:02.696Z,17.03
2019-05-09T07:08:41.588Z,17.20
2019-05-09T07:11:12.297Z,17.43
2019-05-09T07:13:43.096Z,17.59
2019-05-09T07:16:14.156Z,17.60
2019-05-09T07:18:48.297Z,17.77
2019-05-09T07:21:18.939Z,17.99
2019-05-09T07:23:49.895Z,18.23
2019-05-09T07:26:28.101Z,18.46
2019-05-09T07:28:59.590Z,18.63
2019-05-09T07:31:37.739Z,18.78
2019-05-09T07:34:14.656Z,19.08
2019-05-09T07:36:47.487Z,19.07
2019-05-09T07:39:17.836Z,19.34
2019-05-09T07:41:48.676Z,19.76
2019-05-09T07:44:19.476Z,19.99
2019-05-09T07:46:58.316Z,20.18
2019-05-09T07:49:30.716Z,20.23
2019-05-09T07:52:06.849Z,20.35
2019-05-09T07:54:37.557Z,20.48
2019-05-09T07:57:08.513Z,20.51
2019-05-09T07:59:40.596Z,20.77
2019-05-09T08:02:11.577Z,20.82
2019-05-09T08:04:42.439Z,20.96
2019-05-09T08:07:13.309Z,20.97
2019-05-09T08:09:44.076Z,20.90
2019-05-09T08:12:14.948Z,20.95
2019-05-09T08:14:55.348Z,20.88
2019-05-09T08:17:19.026Z,20.52
2019-05-09T08:19:49.856Z,19.93
2019-05-09T08:22:25.727Z,19.63
2019-05-09T08:24:53.356Z,19.33
2019-05-09T08:27:24.036Z,19.04
2019-05-09T08:29:54.876Z,18.92
2019-05-09T08:32:28.430Z,18.70
2019-05-09T08:34:58.083Z,18.60
2019-05-09T08:37:29.156Z,18.70
2019-05-09T08:39:59.916Z,18.88
2019-05-09T08:42:30.738Z,18.92
2019-05-09T08:45:01.518Z,18.85
2019-05-09T08:47:35.084Z,18.70
2019-05-09T08:50:17.467Z,18.57
2019-05-09T08:52:48.270Z,18.55
2019-05-09T08:55:19.078Z,18.52
2019-05-09T08:57:50.041Z,18.37
2019-05-09T09:00:20.786Z,18.50
2019-05-09T09:02:51.756Z,18.69
2019-05-09T09:05:22.618Z,19.07
2019-05-09T09:07:53.479Z,19.18
2019-05-09T09:10:24.196Z,19.39
2019-05-09T09:12:54.936Z,19.64
2019-05-09T09:15:54.582Z,19.76
2019-05-09T09:17:58.276Z,20.15
2019-05-09T09:20:29.095Z,20.55
2019-05-09T09:23:00.157Z,20.63
2019-05-09T09:25:30.859Z,20.89
2019-05-09T09:28:01.645Z,21.05
2019-05-09T09:30:32.317Z,21.41
2019-05-09T09:33:03.177Z,21.59
2019-05-09T09:35:34.976Z,21.60
2019-05-09T09:38:05.757Z,21.55
2019-05-09T09:40:38.574Z,21.39
2019-05-09T09:43:09.511Z,21.56
2019-05-09T09:45:40.376Z,21.85
2019-05-09T09:48:11.177Z,22.16
2019-05-09T09:50:42.036Z,22.29
2019-05-09T09:53:12.696Z,22.45
2019-05-09T09:55:43.520Z,22.64
2019-05-09T09:58:14.261Z,22.87
2019-05-09T10:01:09.278Z,22.96
2019-05-09T10:03:40.038Z,23.12
2019-05-09T10:06:10.896Z,23.43
2019-05-09T10:08:41.757Z,23.72
2019-05-09T10:11:12.556Z,23.79
2019-05-09T10:13:43.377Z,23.87
2019-05-09T10:16:47.633Z,23.40
2019-05-09T10:19:29.376Z,23.36
2019-05-09T10:22:01.377Z,23.30
2019-05-09T10:24:32.076Z,22.67
2019-05-09T10:27:18.273Z,22.38
2019-05-09T10:29:48.549Z,22.40
2019-05-09T10:32:20.407Z,22.36
2019-05-09T10:34:51.158Z,22.10
2019-05-09T10:37:22.077Z,21.93
2019-05-09T10:39:53.069Z,22.30
2019-05-09T10:42:41.436Z,22.40
2019-05-09T10:45:29.756Z,22.80
2019-05-09T10:48:00.576Z,23.04
2019-05-09T10:50:33.944Z,23.37
2019-05-09T10:53:03.725Z,23.50
2019-05-09T10:55:34.436Z,23.00
2019-05-09T10:58:07.833Z,22.93
2019-05-09T11:00:39.313Z,22.64
2019-05-09T11:03:10.057Z,22.29
2019-05-09T11:05:40.858Z,21.87
2019-05-09T11:08:11.716Z,21.63
2019-05-09T11:10:42.416Z,21.89
2019-05-09T11:13:13.284Z,21.77
2019-05-09T11:15:45.075Z,22.37
2019-05-09T11:18:18.383Z,22.53
2019-05-09T11:20:49.796Z,21.87
2019-05-09T11:23:20.558Z,21.43
2019-05-09T11:25:53.837Z,20.76
2019-05-09T11:28:24.578Z,20.28
2019-05-09T11:30:55.316Z,19.99
2019-05-09T11:33:27.779Z,19.78
2019-05-09T11:35:58.786Z,19.68
2019-05-09T11:38:36.058Z,19.52
2019-05-09T11:41:01.957Z,19.49
2019-05-09T11:43:32.697Z,19.24
2019-05-09T11:46:03.555Z,19.00
2019-05-09T11:48:34.486Z,18.76
2019-05-09T11:51:05.277Z,18.52
2019-05-09T11:53:36.056Z,18.44
2019-05-09T11:56:08.222Z,18.03
2019-05-09T11:58:39.086Z,17.90
2019-05-09T12:01:10.027Z,17.91
2019-05-09T12:03:40.817Z,17.90
2019-05-09T12:06:11.575Z,17.92
2019-05-09T12:08:42.416Z,18.06
2019-05-09T12:11:13.316Z,18.27
2019-05-09T12:13:44.106Z,18.98
2019-05-09T12:16:14.877Z,19.30
2019-05-09T12:18:45.656Z,19.51
2019-05-09T12:21:19.096Z,19.53
2019-05-09T12:23:49.718Z,19.75
2019-05-09T12:26:20.756Z,19.85
2019-05-09T12:28:51.677Z,19.88
2019-05-09T12:31:22.656Z,19.58
2019-05-09T12:33:53.536Z,19.40
2019-05-09T12:36:24.396Z,19.19
2019-05-09T12:38:55.277Z,19.12
2019-05-09T12:41:30.910Z,18.88
2019-05-09T12:43:58.398Z,18.72
2019-05-09T12:46:29.277Z,18.33
2019-05-09T12:49:00.177Z,18.33
2019-05-09T12:51:30.860Z,18.20
2019-05-09T12:54:01.596Z,18.05
2019-05-09T12:56:32.336Z,17.86
2019-05-09T12:59:03.120Z,17.73
2019-05-09T13:01:34.696Z,17.63
2019-05-09T13:04:09.487Z,17.69
2019-05-09T13:06:38.189Z,17.73
2019-05-09T13:09:10.137Z,17.62
2019-05-09T13:11:40.936Z,17.37
2019-05-09T13:14:11.778Z,17.16
2019-05-09T13:17:01.391Z,17.00
2019-05-09T13:19:38.168Z,17.02
2019-05-09T13:22:09.139Z,16.88
2019-05-09T13:24:39.996Z,16.81
2019-05-09T13:27:10.800Z,16.80
2019-05-09T13:29:41.698Z,16.68
2019-05-09T13:32:12.436Z,16.74
2019-05-09T13:34:43.177Z,16.77
2019-05-09T13:37:14.216Z,16.81
2019-05-09T13:39:47.430Z,16.82
2019-05-09T13:42:19.466Z,16.84
2019-05-09T13:44:49.777Z,16.91
2019-05-09T13:47:20.736Z,17.04
2019-05-09T13:49:51.538Z,17.09
2019-05-09T13:52:22.216Z,17.30
2019-05-09T13:54:53.041Z,17.34
2019-05-09T13:57:23.936Z,17.48
2019-05-09T13:59:54.675Z,17.62
2019-05-09T14:02:25.436Z,17.50
2019-05-09T14:04:58.357Z,17.60
2019-05-09T14:07:28.616Z,17.92
2019-05-09T14:09:59.507Z,18.15
2019-05-09T14:12:30.685Z,18.23
2019-05-09T14:15:01.390Z,18.24
2019-05-09T14:17:46.036Z,18.11
2019-05-09T14:20:05.050Z,18.09
2019-05-09T14:22:38.434Z,17.95
2019-05-09T14:25:11.715Z,17.83
2019-05-09T14:27:41.181Z,17.90
2019-05-09T14:30:12.357Z,17.94
2019-05-09T14:32:43.211Z,17.95
2019-05-09T14:35:14.036Z,18.05
2019-05-09T14:37:45.538Z,17.87
2019-05-09T14:40:17.602Z,17.98
2019-05-09T14:42:49.447Z,17.88
2019-05-09T14:45:20.797Z,17.69
2019-05-09T14:47:52.004Z,17.45
2019-05-09T14:50:24.256Z,17.24
2019-05-09T14:52:55.104Z,16.98
2019-05-09T14:55:28.481Z,16.84
2019-05-09T14:57:58.216Z,16.51
2019-05-09T15:00:29.408Z,16.27
2019-05-09T15:03:00.139Z,16.14
2019-05-09T15:05:30.977Z,16.09
2019-05-09T15:08:01.751Z,15.88
2019-05-09T15:10:32.676Z,15.67
2019-05-09T15:13:03.585Z,15.57
2019-05-09T15:15:34.476Z,15.50
2019-05-09T15:18:07.961Z,15.41
2019-05-09T15:20:38.876Z,15.36
2019-05-09T15:23:09.776Z,15.25
2019-05-09T15:25:42.042Z,15.19
2019-05-09T15:28:12.937Z,15.17
2019-05-09T15:30:44.009Z,15.16
2019-05-09T15:33:17.449Z,15.09
2019-05-09T15:35:48.808Z,15.01
2019-05-09T15:38:22.380Z,14.87
2019-05-09T15:40:52.416Z,14.72
2019-05-09T15:43:23.279Z,14.60
2019-05-09T15:45:59.701Z,14.49
2019-05-09T15:48:30.756Z,14.31
2019-05-09T15:51:01.617Z,14.26
2019-05-09T15:53:32.357Z,14.17
2019-05-09T15:56:03.266Z,14.13
2019-05-09T15:58:34.316Z,14.07
2019-05-09T16:01:07.951Z,13.95
2019-05-09T16:03:38.399Z,13.90
2019-05-09T16:06:09.324Z,13.87
2019-05-09T16:08:40.058Z,13.78
2019-05-09T16:11:10.956Z,13.78
2019-05-09T16:13:41.719Z,13.76
2019-05-09T16:16:12.517Z,13.75
2019-05-09T16:18:43.356Z,13.69
2019-05-09T16:21:14.206Z,13.59
2019-05-09T16:23:45.046Z,13.47
2019-05-09T16:26:17.982Z,13.48
2019-05-09T16:28:48.910Z,13.45
2019-05-09T16:31:19.871Z,13.41
2019-05-09T16:33:51.087Z,13.37
2019-05-09T16:36:23.056Z,13.30
2019-05-09T16:38:54.516Z,13.15
2019-05-09T16:41:25.396Z,13.12
2019-05-09T16:43:58.185Z,13.13
2019-05-09T16:46:28.855Z,13.12
2019-05-09T16:49:00.667Z,13.05
2019-05-09T16:51:32.714Z,13.08
2019-05-09T16:54:03.597Z,13.02
2019-05-09T16:56:38.061Z,13.01
2019-05-09T16:59:09.696Z,13.02
2019-05-09T17:01:46.586Z,12.96
2019-05-09T17:04:19.108Z,13.00
2019-05-09T17:06:49.790Z,13.02
2019-05-09T17:09:22.376Z,13.07
2019-05-09T17:15:49.055Z,13.10
2019-05-09T17:18:20.645Z,13.07
2019-05-09T17:21:18.220Z,13.02
2019-05-09T17:23:41.876Z,13.04
2019-05-09T17:26:12.756Z,13.01
2019-05-09T17:28:43.840Z,12.97
2019-05-09T17:31:14.536Z,12.98
2019-05-09T17:33:45.566Z,12.99
2019-05-09T17:36:18.239Z,12.95
2019-05-09T17:38:55.416Z,12.94
2019-05-09T17:41:28.447Z,12.95
2019-05-09T17:43:59.485Z,12.91
2019-05-09T17:46:30.266Z,12.91
2019-05-09T17:49:01.282Z,12.89
2019-05-09T17:51:34.035Z,12.88
2019-05-09T17:54:04.776Z,12.84
2019-05-09T17:56:37.684Z,12.81
2019-05-09T17:59:08.685Z,12.81
2019-05-09T18:01:40.656Z,12.81
2019-05-09T18:04:11.936Z,12.77
2019-05-09T18:06:42.776Z,12.71
2019-05-09T18:09:13.656Z,12.67
2019-05-09T18:11:45.196Z,12.63
2019-05-09T18:14:18.400Z,12.62
2019-05-09T18:16:48.656Z,12.59
2019-05-09T18:19:19.684Z,12.53
2019-05-09T18:21:51.463Z,12.44
2019-05-09T18:24:22.426Z,12.38
2019-05-09T18:26:53.336Z,12.25
2019-05-09T18:29:24.316Z,12.17
2019-05-09T18:32:14.436Z,12.09
2019-05-09T18:34:45.616Z,11.96
2019-05-09T18:37:17.284Z,11.90
2019-05-09T18:39:49.256Z,11.88
2019-05-09T18:42:20.566Z,11.85
2019-05-09T18:44:51.416Z,11.82
2019-05-09T18:47:22.356Z,11.82
2019-05-09T18:49:54.076Z,11.78
2019-05-09T18:52:25.396Z,11.78
2019-05-09T18:54:56.096Z,11.80
2019-05-09T18:57:27.076Z,11.83
2019-05-09T18:59:57.976Z,11.83
2019-05-09T19:02:29.744Z,11.80
2019-05-09T19:05:00.656Z,11.81
2019-05-09T19:07:31.556Z,11.82
2019-05-09T19:10:02.479Z,11.84
2019-05-09T19:12:33.576Z,11.86
2019-05-09T19:15:06.161Z,11.83
2019-05-09T19:17:54.539Z,11.84
2019-05-09T19:20:37.926Z,11.82
2019-05-09T19:23:10.249Z,11.81
2019-05-09T19:25:41.066Z,11.81
2019-05-09T19:28:12.466Z,11.84
2019-05-09T19:30:43.336Z,11.84
2019-05-09T19:33:14.099Z,11.82
2019-05-09T19:35:46.769Z,11.79
2019-05-09T19:38:18.101Z,11.76
2019-05-09T19:40:49.956Z,11.72
2019-05-09T19:43:21.499Z,11.66
2019-05-09T19:45:52.467Z,11.63
2019-05-09T19:48:23.351Z,11.59
2019-05-09T19:50:54.344Z,11.56
2019-05-09T19:53:25.276Z,11.56
2019-05-09T19:55:56.581Z,11.54
2019-05-09T19:58:30.717Z,11.54
2019-05-09T20:01:01.936Z,11.58
2019-05-09T20:03:32.856Z,11.52
2019-05-09T20:06:03.887Z,11.48
2019-05-09T20:08:35.308Z,11.42
2019-05-09T20:11:25.126Z,11.37
2019-05-09T20:14:06.266Z,11.32
2019-05-09T20:16:39.017Z,11.28
2019-05-09T20:19:10.486Z,11.25
2019-05-09T20:21:42.153Z,11.19
2019-05-09T20:24:13.416Z,11.17
2019-05-09T20:26:44.236Z,11.12
2019-05-09T20:29:15.236Z,11.07
2019-05-09T20:31:46.046Z,11.02
2019-05-09T20:34:17.060Z,10.97
2019-05-09T20:36:48.117Z,10.91
2019-05-09T20:39:19.385Z,10.86
2019-05-09T20:41:50.577Z,10.79
2019-05-09T20:44:21.546Z,10.74
2019-05-09T20:46:52.637Z,10.67
2019-05-09T20:49:23.830Z,10.60
2019-05-09T20:51:55.936Z,10.60
2019-05-09T20:54:27.556Z,10.57
2019-05-09T20:56:58.457Z,10.55
2019-05-09T20:59:29.456Z,10.54
2019-05-09T21:02:00.393Z,10.51
2019-05-09T21:04:31.376Z,10.49
2019-05-09T21:07:02.371Z,10.46
2019-05-09T21:09:33.661Z,10.44
2019-05-09T21:12:04.967Z,10.40
2019-05-09T21:14:35.917Z,10.37
2019-05-09T21:17:06.918Z,10.32
2019-05-09T21:19:38.496Z,10.30
2019-05-09T21:22:09.526Z,10.24
2019-05-09T21:24:40.626Z,10.21
2019-05-09T21:27:11.617Z,10.14
2019-05-09T21:29:42.656Z,10.09
2019-05-09T21:32:13.716Z,10.05
2019-05-09T21:34:44.756Z,9.98
2019-05-09T21:37:15.727Z,9.93
2019-05-09T21:39:46.856Z,9.89
2019-05-09T21:42:18.296Z,9.84
2019-05-09T21:44:50.257Z,9.80
2019-05-09T21:47:21.176Z,9.76
2019-05-09T21:49:51.916Z,9.73
2019-05-09T21:52:22.646Z,9.69
2019-05-09T21:54:53.597Z,9.70
2019-05-09T21:57:24.336Z,9.73
2019-05-09T21:59:55.156Z,9.72
2019-05-09T22:02:26.207Z,9.73
2019-05-09T22:04:57.197Z,9.70
2019-05-09T22:07:28.096Z,9.69
2019-05-09T22:09:59.159Z,9.69
2019-05-09T22:12:29.896Z,9.70
2019-05-09T22:15:03.859Z,9.70
2019-05-09T22:17:42.596Z,9.72
2019-05-09T22:20:15.075Z,9.75
2019-05-09T22:22:45.936Z,9.78
2019-05-09T22:25:17.717Z,9.75
2019-05-09T22:27:48.612Z,9.72
2019-05-09T22:30:19.946Z,9.72
2019-05-09T22:32:50.856Z,9.72
2019-05-09T22:35:21.716Z,9.69
2019-05-09T22:37:52.624Z,9.61
2019-05-09T22:40:24.147Z,9.65
2019-05-09T22:42:55.046Z,9.64
2019-05-09T22:45:26.211Z,9.60
2019-05-09T22:47:57.180Z,9.58
2019-05-09T22:50:28.098Z,9.59
2019-05-09T22:52:59.036Z,9.58
2019-05-09T22:55:29.801Z,9.58
2019-05-09T22:58:00.646Z,9.58
2019-05-09T23:00:32.575Z,9.58
2019-05-09T23:03:03.456Z,9.60
2019-05-09T23:05:34.255Z,9.61
2019-05-09T23:08:05.440Z,9.60
2019-05-09T23:10:36.257Z,9.57
2019-05-09T23:13:07.435Z,9.56
2019-05-09T23:15:38.296Z,9.54
2019-05-09T23:18:09.275Z,9.53
2019-05-09T23:20:51.503Z,9.52
2019-05-09T23:23:28.198Z,9.52
2019-05-09T23:25:59.111Z,9.54
2019-05-09T23:28:30.815Z,9.51
2019-05-09T23:31:04.135Z,9.48
2019-05-09T23:33:37.976Z,9.46
2019-05-09T23:36:08.957Z,9.43
2019-05-09T23:38:57.155Z,9.42
2019-05-09T23:41:28.495Z,9.41
2019-05-09T23:44:00.422Z,9.40
2019-05-09T23:46:32.196Z,9.37
2019-05-09T23:49:03.270Z,9.36
2019-05-09T23:51:48.007Z,9.34
2019-05-09T23:54:46.047Z,9.31
2019-05-09T23:57:27.744Z,9.28
